Italic G — IBYH — position and weather

sailwx.info

Track history (hours):
 
Tides and Currents Weather Stations Pressure Air Temp Water Temp Dewpoint Dewpoint Depression Visibility Wind Speed Wind Dir Waves Ship Positions

Italic G

Last reported at 2016-May-04 15:19 UTC. Time now 2016-May-04 17:25 UTC.
Position N 37°40' E 016°14'.

Length 229 m; draft 9.5 m.

Type: Cargo ship. MMSI: 247282300.

Date/timePositionNaut miles runAvg speedWind from/ knotsBaromVisibWave heightAir tempDewpointWater temp
2016-May-04 15:19N 37°40' E 016°14'1012.5
2016-May-04 14:31N 37°31' E 016°09'1212.2
2016-May-04 13:32N 37°20' E 016°02'8710.9
2016-May-04 05:33N 36°27' E 014°36'1312.5
2016-May-04 04:31N 36°29' E 014°20'1312.7
2016-May-04 03:30N 36°34' E 014°05'1212.6
2016-May-04 02:33N 36°37' E 013°51'1812.4
2016-May-04 01:07N 36°42' E 013°30'  
2016-Apr-30 17:19N 36°03' W 005°15'7 9.6
2016-Apr-30 16:33N 36°04' W 005°24'6 5.9
2016-Apr-30 15:33N 35°58' W 005°25'20511.8
2016-Apr-29 22:07N 36°48' W 009°32'3412.3
2016-Apr-29 19:20N 37°21' W 009°43'1012.1
2016-Apr-29 18:31N 37°31' W 009°46'1212.2
2016-Apr-29 17:33N 37°42' W 009°50'1212.4
2016-Apr-29 16:33N 37°54' W 009°53'1212.4
2016-Apr-29 15:33N 38°06' W 009°56'1212.1
2016-Apr-29 14:33N 38°18' W 010°00'2812.5
2016-Apr-29 12:17N 38°46' W 010°07'912.7
2016-Apr-29 11:33N 38°55' W 010°07'  
2016-Apr-26 23:08N 49°42' W 003°48'711.7
2016-Apr-26 22:33N 49°45' W 003°38'1111.1
2016-Apr-26 21:33N 49°51' W 003°24'1110.7
2016-Apr-26 20:33N 49°56' W 003°09'1510.8
2016-Apr-26 19:11N 50°01' W 002°47'9712.7
2016-Apr-26 11:33N 50°26' W 000°21'1010.1
2016-Apr-26 10:33N 50°29' W 000°06'1110.5
2016-Apr-26 09:31N 50°32' E 000°11'1311.7
2016-Apr-26 08:24N 50°35' E 000°31'2613.2
2016-Apr-26 06:25N 50°51' E 001°03'1112.8
2016-Apr-26 05:33N 50°58' E 001°16'1211.6
2016-Apr-26 04:33N 51°06' E 001°31'10 9.8
2016-Apr-26 03:33N 51°12' E 001°43'10 9.9
2016-Apr-26 02:33N 51°20' E 001°51'1110.6
2016-Apr-26 01:33N 51°29' E 001°60'1211.5
2016-Apr-26 00:33N 51°37' E 002°13'  
Track history (hours):
 
Tides and Currents Weather Stations Pressure Air Temp Water Temp Dewpoint Dewpoint Depression Visibility Wind Speed Wind Dir Waves Ship Positions

Italic G

Last reported at 2016-May-04 15:19 UTC. Time now 2016-May-04 17:25 UTC.
Position N 37°40' E 016°14'.

Length 229 m; draft 9.5 m.

Type: Cargo ship. MMSI: 247282300.

Date/timePositionNaut miles runAvg speedWind from/ knotsBaromVisibWave heightAir tempDewpointWater temp
2016-May-04 15:19N 37°40' E 016°14'1012.5
2016-May-04 14:31N 37°31' E 016°09'1212.2
2016-May-04 13:32N 37°20' E 016°02'8710.9
2016-May-04 05:33N 36°27' E 014°36'1312.5
2016-May-04 04:31N 36°29' E 014°20'1312.7
2016-May-04 03:30N 36°34' E 014°05'1212.6
2016-May-04 02:33N 36°37' E 013°51'1812.4
2016-May-04 01:07N 36°42' E 013°30'  
2016-Apr-30 17:19N 36°03' W 005°15'7 9.6
2016-Apr-30 16:33N 36°04' W 005°24'6 5.9
2016-Apr-30 15:33N 35°58' W 005°25'20511.8
2016-Apr-29 22:07N 36°48' W 009°32'3412.3
2016-Apr-29 19:20N 37°21' W 009°43'1012.1
2016-Apr-29 18:31N 37°31' W 009°46'1212.2
2016-Apr-29 17:33N 37°42' W 009°50'1212.4
2016-Apr-29 16:33N 37°54' W 009°53'1212.4
2016-Apr-29 15:33N 38°06' W 009°56'1212.1
2016-Apr-29 14:33N 38°18' W 010°00'2812.5
2016-Apr-29 12:17N 38°46' W 010°07'912.7
2016-Apr-29 11:33N 38°55' W 010°07'  
2016-Apr-26 23:08N 49°42' W 003°48'711.7
2016-Apr-26 22:33N 49°45' W 003°38'1111.1
2016-Apr-26 21:33N 49°51' W 003°24'1110.7
2016-Apr-26 20:33N 49°56' W 003°09'1510.8
2016-Apr-26 19:11N 50°01' W 002°47'9712.7
2016-Apr-26 11:33N 50°26' W 000°21'1010.1
2016-Apr-26 10:33N 50°29' W 000°06'1110.5
2016-Apr-26 09:31N 50°32' E 000°11'1311.7
2016-Apr-26 08:24N 50°35' E 000°31'2613.2
2016-Apr-26 06:25N 50°51' E 001°03'1112.8
2016-Apr-26 05:33N 50°58' E 001°16'1211.6
2016-Apr-26 04:33N 51°06' E 001°31'10 9.8
2016-Apr-26 03:33N 51°12' E 001°43'10 9.9
2016-Apr-26 02:33N 51°20' E 001°51'1110.6
2016-Apr-26 01:33N 51°29' E 001°60'1211.5
2016-Apr-26 00:33N 51°37' E 002°13'  

Dump ship's entire track history